Time;durP1;ratioP1;P1;durP2;ratioP2;P2;SDS_P1;SDS_P2;PMS_P1;PMS_P2;Temp;Humidity;BMP_temperature;BMP_pressure;BME280_temperature;BME280_humidity;BME280_pressure;Samples;Min_cycle;Max_cycle;Signal;HPM_P1;HPM_P2
2022/07/11 00:02:25;;;;;;;2.58;0.60;;;;;;;26.71;39.49;100832.94;4933783;29;20520;-79
2022/07/11 00:05:10;;;;;;;3.60;0.60;;;;;;;26.63;38.95;100827.88;4943110;29;20059;-78
2022/07/11 00:07:55;;;;;;;1.98;0.50;;;;;;;26.63;39.72;100825.06;4941863;29;20413;-80
2022/07/11 00:10:40;;;;;;;;;;;;;;;26.65;38.49;100825.47;4941781;29;20066;-77
2022/07/11 00:13:25;;;;;;;1.88;0.55;;;;;;;26.56;39.50;100828.78;4941008;29;19915;-78
2022/07/11 00:16:09;;;;;;;1.27;0.50;;;;;;;26.60;39.25;100823.94;4940797;29;20055;-78
2022/07/11 00:18:54;;;;;;;1.45;0.57;;;;;;;26.65;39.01;100822.66;4946110;29;20043;-79
2022/07/11 00:21:40;;;;;;;1.77;0.45;;;;;;;26.65;38.48;100823.47;4942501;29;20047;-79
2022/07/11 00:24:26;;;;;;;4.18;0.50;;;;;;;26.52;39.43;100818.88;4939725;29;20067;-79
2022/07/11 00:27:12;;;;;;;1.75;0.70;;;;;;;26.54;39.18;100824.81;4944122;29;20058;-78
2022/07/11 00:29:56;;;;;;;3.50;0.50;;;;;;;26.55;39.31;100830.00;4942433;29;20050;-79
2022/07/11 00:32:41;;;;;;;1.85;0.47;;;;;;;26.58;39.25;100831.94;4942994;29;20424;-80
2022/07/11 00:35:26;;;;;;;1.52;0.60;;;;;;;26.60;38.52;100831.50;4941939;29;20046;-79
2022/07/11 00:38:10;;;;;;;;;;;;;;;26.66;38.21;100835.41;4940119;29;20054;-78
2022/07/11 00:40:54;;;;;;;2.05;0.45;;;;;;;26.63;38.05;100827.88;4933485;29;19914;-77
2022/07/11 00:43:41;;;;;;;0.85;0.35;;;;;;;26.67;37.64;100831.38;4935822;29;20047;-79
2022/07/11 00:46:27;;;;;;;2.20;0.40;;;;;;;26.64;37.77;100826.66;4947825;29;20067;-79
2022/07/11 00:49:11;;;;;;;1.55;1.15;;;;;;;26.54;38.45;100820.03;4948285;28;20532;-76
2022/07/11 00:51:56;;;;;;;0.65;0.30;;;;;;;26.58;38.24;100825.56;4944608;29;20051;-80
2022/07/11 00:54:43;;;;;;;2.45;0.50;;;;;;;26.59;38.57;100827.13;4938336;29;20417;-78
2022/07/11 00:57:28;;;;;;;3.42;0.77;;;;;;;26.57;38.23;100821.19;4937687;29;20606;-78
2022/07/11 01:00:13;;;;;;;4.25;0.60;;;;;;;26.56;37.99;100822.41;4935561;29;20066;-80
2022/07/11 01:02:58;;;;;;;1.90;0.40;;;;;;;26.53;37.96;100820.44;4938562;29;20047;-79
2022/07/11 01:05:43;;;;;;;4.53;0.45;;;;;;;26.51;38.10;100815.31;4944292;29;20051;-79
2022/07/11 01:08:31;;;;;;;;;;;;;;;26.53;38.21;100820.44;4942606;28;20051;-77
2022/07/11 01:11:17;;;;;;;1.77;0.50;;;;;;;26.55;38.39;100806.88;4939931;29;19915;-79
2022/07/11 01:14:01;;;;;;;492.52;113.25;;;;;;;26.53;37.79;100809.28;4939482;28;20416;-78
2022/07/11 01:16:46;;;;;;;205.93;41.20;;;;;;;26.53;38.54;100814.88;4939585;29;20035;-80
2022/07/11 01:19:31;;;;;;;54.40;10.68;;;;;;;26.62;37.67;100820.69;4940063;29;20040;-79
2022/07/11 01:22:23;;;;;;;24.40;7.03;;;;;;;26.65;37.84;100805.94;4938208;29;20047;-80
2022/07/11 01:25:08;;;;;;;12.98;3.47;;;;;;;26.61;37.67;100805.19;4937991;29;20055;-78
2022/07/11 01:27:53;;;;;;;9.10;1.67;;;;;;;26.58;37.54;100804.03;4947000;29;20506;-79
2022/07/11 01:30:38;;;;;;;41.22;2.30;;;;;;;26.61;37.48;100813.56;4946189;29;20047;-80
2022/07/11 01:33:22;;;;;;;;;;;;;;;26.63;37.47;100809.13;4944879;29;20040;-76
2022/07/11 01:36:08;;;;;;;3.65;1.02;;;;;;;26.61;37.72;100805.19;4938618;29;19915;-79
2022/07/11 01:38:52;;;;;;;6.03;0.70;;;;;;;26.60;37.53;100806.41;4941806;29;20046;-79
2022/07/11 01:41:38;;;;;;;4.13;0.65;;;;;;;26.62;37.40;100806.75;4945184;29;20043;-80
2022/07/11 01:44:23;;;;;;;3.03;0.85;;;;;;;26.60;37.46;100810.00;4939824;29;20055;-79
2022/07/11 01:47:08;;;;;;;1.88;0.60;;;;;;;26.60;37.65;100804.41;4946254;29;20074;-79
2022/07/11 01:49:52;;;;;;;1.75;0.65;;;;;;;26.59;37.62;100802.03;4962537;28;20042;-79
2022/07/11 01:52:37;;;;;;;2.47;0.77;;;;;;;26.56;37.73;100795.31;4946053;29;20046;-79
2022/07/11 01:55:22;;;;;;;2.78;0.30;;;;;;;26.57;37.88;100798.88;4938069;29;20157;-79
2022/07/11 01:58:07;;;;;;;1.40;0.50;;;;;;;26.58;37.90;100801.25;4936469;29;20050;-79
2022/07/11 02:00:51;;;;;;;1.38;0.40;;;;;;;26.52;37.82;100802.13;4944442;29;20059;-80
2022/07/11 02:03:37;;;;;;;2.63;0.77;;;;;;;26.51;38.00;100804.16;4944776;29;20046;-78
2022/07/11 02:06:22;;;;;;;1.73;0.47;;;;;;;26.52;38.14;100802.91;4939588;29;20519;-80
2022/07/11 02:09:07;;;;;;;2.78;0.40;;;;;;;26.50;38.21;100805.38;4943498;29;20051;-80
2022/07/11 02:11:52;;;;;;;1.38;0.60;;;;;;;26.54;38.32;100810.88;4948583;29;20050;-80
2022/07/11 02:14:37;;;;;;;0.98;0.45;;;;;;;26.53;38.18;100806.50;4945661;29;20047;-79
2022/07/11 02:17:21;;;;;;;1.88;0.50;;;;;;;26.54;38.34;100808.09;4942128;29;20071;-77
2022/07/11 02:20:07;;;;;;;1.17;0.50;;;;;;;26.54;38.17;100810.88;4935416;29;20088;-80
2022/07/11 02:22:51;;;;;;;2.15;0.52;;;;;;;26.52;38.40;100802.91;4941344;29;20059;-80
2022/07/11 02:25:39;;;;;;;0.68;0.40;;;;;;;26.45;38.65;100802.25;4935851;29;20067;-80
2022/07/11 02:28:24;;;;;;;2.10;0.47;;;;;;;26.50;38.49;100801.78;4946000;29;20054;-79
2022/07/11 02:31:08;;;;;;;2.53;0.40;;;;;;;26.49;38.47;100805.78;4942225;29;20070;-79
2022/07/11 02:33:53;;;;;;;1.40;0.60;;;;;;;26.48;38.62;100807.78;4963419;28;20050;-80
2022/07/11 02:36:38;;;;;;;0.90;0.43;;;;;;;26.49;38.49;100808.56;4939181;29;20043;-80
2022/07/11 02:39:23;;;;;;;2.40;0.50;;;;;;;26.52;38.71;100802.13;4940911;29;20063;-80
2022/07/11 02:42:07;;;;;;;1.20;0.40;;;;;;;26.52;38.53;100819.66;4940400;29;20076;-79
2022/07/11 02:44:52;;;;;;;1.33;0.45;;;;;;;26.52;38.50;100816.06;4937987;29;20051;-79
2022/07/11 02:47:39;;;;;;;1.75;0.50;;;;;;;26.54;38.69;100813.66;4943173;29;20050;-79
2022/07/11 02:50:24;;;;;;;0.77;0.50;;;;;;;26.50;38.73;100819.31;4949146;28;20070;-80
2022/07/11 02:53:09;;;;;;;2.08;0.60;;;;;;;26.52;38.48;100810.50;4940843;28;20050;-80
2022/07/11 02:55:54;;;;;;;1.30;0.65;;;;;;;26.54;38.56;100813.66;4942286;29;20050;-81
2022/07/11 02:58:39;;;;;;;1.95;0.68;;;;;;;26.54;38.82;100816.47;4946475;29;20046;-78
2022/07/11 03:01:24;;;;;;;1.60;0.50;;;;;;;26.53;38.82;100821.25;4935720;29;20063;-79
2022/07/11 03:04:09;;;;;;;2.42;0.70;;;;;;;26.48;38.65;100818.13;4939283;29;20055;-79
2022/07/11 03:06:54;;;;;;;4.13;0.57;;;;;;;26.52;38.81;100827.22;4941777;29;20050;-80
2022/07/11 03:09:38;;;;;;;1.10;0.50;;;;;;;26.49;38.86;100826.09;4943200;29;20051;-80
2022/07/11 03:12:23;;;;;;;1.88;0.57;;;;;;;26.51;39.23;100820.91;4952550;28;20144;-79
2022/07/11 03:15:08;;;;;;;2.60;0.50;;;;;;;26.49;39.00;100828.09;4942850;29;20051;-81
2022/07/11 03:17:53;;;;;;;1.38;0.40;;;;;;;26.50;38.74;100826.88;4945054;29;20050;-78
2022/07/11 03:20:38;;;;;;;3.72;0.70;;;;;;;26.42;39.40;100831.75;4936812;29;20122;-79
2022/07/11 03:23:23;;;;;;;2.45;1.42;;;;;;;26.46;39.15;100831.72;4937128;29;20051;-79
2022/07/11 03:26:08;;;;;;;2.47;0.60;;;;;;;26.48;39.33;100829.28;4942043;29;20051;-80
2022/07/11 03:28:52;;;;;;;2.13;0.55;;;;;;;26.45;39.32;100835.72;4964308;28;20046;-80
2022/07/11 03:31:37;;;;;;;3.65;0.47;;;;;;;26.35;39.73;100826.31;4951635;28;20054;-79
2022/07/11 03:34:22;;;;;;;1.63;0.65;;;;;;;26.33;39.55;100823.94;4946976;29;20058;-79
2022/07/11 03:37:06;;;;;;;2.90;0.68;;;;;;;26.07;40.55;100829.44;4942536;29;20050;-81
2022/07/11 03:39:51;;;;;;;4.60;0.38;;;;;;;25.85;40.55;100842.88;4940476;29;20082;-80
2022/07/11 03:42:36;;;;;;;;;;;;;;;25.77;41.18;100841.34;4938075;29;20050;-78
2022/07/11 03:45:20;;;;;;;1.77;0.70;;;;;;;25.71;41.58;100848.56;4943361;29;19914;-79
2022/07/11 03:48:07;;;;;;;6.38;0.63;;;;;;;25.65;41.84;100847.47;4937930;29;20051;-79
2022/07/11 03:50:51;;;;;;;4.13;0.50;;;;;;;25.58;42.37;100856.69;4937897;29;20050;-77
2022/07/11 03:53:36;;;;;;;3.15;0.90;;;;;;;25.57;42.92;100857.09;4942235;29;20460;-79
2022/07/11 03:56:22;;;;;;;;;;;;;;;25.61;43.07;100866.19;4938601;29;20520;-79
2022/07/11 03:59:07;;;;;;;2.70;0.60;;;;;;;25.34;44.42;100866.84;4935320;29;19914;-81
2022/07/11 04:01:52;;;;;;;1.98;0.55;;;;;;;25.26;45.19;100858.97;4938921;29;20051;-80
2022/07/11 04:04:37;;;;;;;2.20;0.77;;;;;;;25.14;46.18;100868.63;4944081;29;20047;-80
2022/07/11 04:07:22;;;;;;;2.85;1.00;;;;;;;25.22;46.54;100872.91;4944812;29;20338;-79
2022/07/11 04:10:07;;;;;;;4.72;0.77;;;;;;;25.29;46.71;100872.06;4950053;23;20074;-80
2022/07/11 04:12:52;;;;;;;8.10;1.83;;;;;;;25.10;47.25;100881.75;4945172;29;20405;-79
2022/07/11 04:15:37;;;;;;;6.30;0.50;;;;;;;25.02;48.54;100880.25;4966545;28;20047;-81
2022/07/11 04:18:22;;;;;;;3.35;0.80;;;;;;;25.12;48.37;100882.16;4970127;28;20511;-81
2022/07/11 04:21:07;;;;;;;1.75;0.63;;;;;;;25.19;48.16;100882.09;4924622;29;20055;-81
2022/07/11 04:23:52;;;;;;;2.90;0.70;;;;;;;25.16;48.69;100891.25;4926457;29;20126;-81
2022/07/11 04:26:37;;;;;;;4.68;1.02;;;;;;;25.16;48.71;100888.47;4927863;29;20055;-78
2022/07/11 04:29:23;;;;;;;8.00;1.20;;;;;;;25.05;49.26;100884.97;4928170;29;20052;-81
2022/07/11 04:32:08;;;;;;;2.90;0.80;;;;;;;25.07;48.89;100891.72;4926879;29;20047;-81
2022/07/11 04:34:54;;;;;;;4.15;1.20;;;;;;;25.06;48.61;100886.56;4943959;29;20067;-80
2022/07/11 04:37:38;;;;;;;5.07;1.20;;;;;;;24.85;48.67;100881.91;4949406;29;20047;-80
2022/07/11 04:40:23;;;;;;;7.30;1.17;;;;;;;24.96;48.79;100887.44;4935463;29;21157;-81
2022/07/11 04:43:08;;;;;;;9.80;1.20;;;;;;;25.28;47.60;100882.41;4923191;29;20172;-78
2022/07/11 04:45:52;;;;;;;7.70;1.88;;;;;;;25.47;46.91;100890.19;4921132;29;20059;-80
2022/07/11 04:48:38;;;;;;;12.27;0.80;;;;;;;25.65;46.21;100889.25;4918553;29;20055;-78
2022/07/11 04:51:24;;;;;;;9.55;0.70;;;;;;;25.77;45.39;100892.28;4917073;29;20059;-81
2022/07/11 04:54:08;;;;;;;6.85;0.73;;;;;;;25.77;45.45;100891.50;4919994;29;20047;-80
2022/07/11 04:56:53;;;;;;;4.45;1.10;;;;;;;25.69;45.78;100898.38;4925556;29;20047;-81
2022/07/11 04:59:38;;;;;;;2.22;0.60;;;;;;;25.67;45.80;100901.56;4931793;29;20047;-79
2022/07/11 05:02:23;;;;;;;3.33;0.70;;;;;;;25.70;45.46;100908.31;4949634;29;20054;-78
2022/07/11 05:05:10;;;;;;;2.42;0.73;;;;;;;25.78;44.92;100907.03;4945821;29;20051;-81
2022/07/11 05:07:54;;;;;;;2.85;0.60;;;;;;;25.84;44.90;100919.31;4921116;29;20067;-81
2022/07/11 05:10:39;;;;;;;1.58;0.80;;;;;;;25.80;44.88;100929.69;4920122;29;20055;-81
2022/07/11 05:13:24;;;;;;;;;;;;;;;25.88;44.36;100932.00;4921257;29;20433;-80
2022/07/11 05:16:08;;;;;;;5.53;0.90;;;;;;;25.94;44.32;100926.75;4933214;29;19915;-80
2022/07/11 05:18:53;;;;;;;5.28;0.73;;;;;;;25.98;44.25;100935.84;4927174;29;20291;-80
2022/07/11 05:21:38;;;;;;;1.85;0.80;;;;;;;25.96;43.85;100943.84;4914067;29;20051;-80
2022/07/11 05:24:23;;;;;;;3.85;0.60;;;;;;;25.99;43.97;100937.44;4920412;29;20421;-77
2022/07/11 05:27:09;;;;;;;5.15;1.02;;;;;;;25.95;43.62;100936.69;4927152;29;20052;-81
2022/07/11 05:29:54;;;;;;;3.97;0.73;;;;;;;25.88;44.22;100939.56;4924139;29;20479;-81
2022/07/11 05:32:39;;;;;;;3.88;0.75;;;;;;;25.99;43.80;100937.44;4900943;29;20513;-81
2022/07/11 05:35:25;;;;;;;3.85;0.80;;;;;;;26.08;43.79;100951.69;4917181;29;20055;-81
2022/07/11 05:38:09;;;;;;;7.47;1.10;;;;;;;26.07;43.55;100949.28;4919899;29;20520;-81
2022/07/11 05:40:54;;;;;;;2.65;0.70;;;;;;;26.06;43.66;100942.16;4938879;29;20043;-81
2022/07/11 05:43:39;;;;;;;4.43;1.20;;;;;;;26.02;43.91;100956.13;4925702;29;20051;-80
2022/07/11 05:46:24;;;;;;;1.25;0.60;;;;;;;26.02;44.01;100952.53;4920003;29;20059;-81
2022/07/11 05:49:08;;;;;;;1.50;0.80;;;;;;;26.02;44.01;100958.91;4919746;29;20059;-81
2022/07/11 05:51:52;;;;;;;2.58;0.80;;;;;;;26.06;44.26;100953.31;4921702;29;20047;-82
2022/07/11 05:54:37;;;;;;;2.53;1.10;;;;;;;26.07;44.41;100952.88;4912239;29;20066;-82
2022/07/11 05:57:22;;;;;;;5.25;0.80;;;;;;;26.13;44.23;100962.38;4934640;29;20055;-82
2022/07/11 06:00:08;;;;;;;5.93;1.10;;;;;;;26.17;44.05;100965.91;4924378;29;20047;-80
2022/07/11 06:02:54;;;;;;;2.22;0.60;;;;;;;26.16;44.08;100955.19;4936760;29;20043;-81
2022/07/11 06:05:39;;;;;;;6.80;0.70;;;;;;;26.17;43.92;100960.34;4936391;29;20051;-81
2022/07/11 06:08:41;;;;;;;;;;;;;;;26.25;43.48;100955.50;4936223;29;20055;-81
2022/07/11 06:11:26;;;;;;;1.67;0.80;;;;;;;26.23;43.65;100961.50;4935131;29;19915;-82
2022/07/11 06:14:11;;;;;;;4.25;0.80;;;;;;;26.30;43.44;100964.22;4908119;29;20051;-82
2022/07/11 06:16:56;;;;;;;1.90;1.13;;;;;;;26.27;43.58;100965.03;4941761;29;20047;-82
2022/07/11 06:19:41;;;;;;;3.08;0.50;;;;;;;26.36;43.27;100959.72;4946325;28;20047;-82
2022/07/11 06:22:25;;;;;;;5.15;0.90;;;;;;;26.34;43.26;100953.78;4927653;29;20055;-82
2022/07/11 06:25:11;;;;;;;7.53;2.83;;;;;;;26.38;43.37;100964.91;4920111;29;20047;-82
2022/07/11 06:27:55;;;;;;;3.20;0.73;;;;;;;26.41;43.13;100968.88;4921503;29;20705;-82
2022/07/11 06:30:40;;;;;;;2.30;0.70;;;;;;;26.38;43.74;100971.28;4917138;29;20047;-83
2022/07/11 06:33:24;;;;;;;;;;;;;;;26.53;43.37;100971.09;4943033;29;20055;-82
2022/07/11 06:36:09;;;;;;;2.90;0.98;;;;;;;26.49;43.45;100976.72;4937494;29;20377;-81
2022/07/11 06:38:54;;;;;;;2.92;0.80;;;;;;;26.43;43.44;100983.16;4920200;29;20039;-81
2022/07/11 06:41:39;;;;;;;;;;;;;;;26.52;43.85;100991.81;4927276;29;20055;-82
2022/07/11 06:44:23;;;;;;;3.72;1.15;;;;;;;26.47;44.01;100978.31;4926299;29;19923;-83
2022/07/11 06:47:08;;;;;;;3.47;0.80;;;;;;;26.48;43.74;100986.28;4927314;29;20409;-82
2022/07/11 06:49:53;;;;;;;;;;;;;;;26.53;43.60;100990.63;4930656;29;20051;-82
2022/07/11 06:52:37;;;;;;;3.30;0.80;;;;;;;26.53;43.76;100993.41;4933014;29;19915;-82
2022/07/11 06:55:22;;;;;;;1.85;0.80;;;;;;;26.55;44.34;100996.56;4919157;29;20067;-81
2022/07/11 06:58:07;;;;;;;;;;;;;;;26.60;44.61;101001.69;4931813;29;20070;-80
2022/07/11 07:00:52;;;;;;;5.60;1.00;;;;;;;26.55;44.28;101002.16;4920353;29;20384;-80
2022/07/11 07:03:36;;;;;;;3.88;0.88;;;;;;;26.62;44.08;100991.69;4929713;29;20508;-79
2022/07/11 07:06:20;;;;;;;;;;;;;;;26.68;44.05;100994.81;4929562;29;20063;-80
2022/07/11 07:09:05;;;;;;;4.83;0.53;;;;;;;26.61;43.80;100992.91;4944846;28;19919;-81
2022/07/11 07:11:49;;;;;;;;;;;;;;;26.71;43.52;100994.00;4922483;29;20050;-80
2022/07/11 07:14:34;;;;;;;6.80;0.80;;;;;;;26.66;44.04;100995.25;4920634;29;19915;-78
2022/07/11 07:17:19;;;;;;;6.35;0.82;;;;;;;26.74;43.81;101004.31;4917289;29;20054;-80
2022/07/11 07:20:05;;;;;;;5.78;0.93;;;;;;;26.80;43.25;100997.03;4934004;29;20050;-79
2022/07/11 07:22:49;;;;;;;3.28;0.95;;;;;;;26.79;43.13;100998.25;4918722;29;20051;-79
2022/07/11 07:25:35;;;;;;;3.55;0.93;;;;;;;26.83;43.65;101002.56;4919402;29;20047;-79
2022/07/11 07:28:19;;;;;;;4.85;1.13;;;;;;;26.82;44.06;101008.56;4933806;29;20070;-79
2022/07/11 07:31:05;;;;;;;22.35;1.98;;;;;;;26.87;44.25;101002.53;4934489;29;20056;-80
2022/07/11 07:33:50;;;;;;;3.58;0.80;;;;;;;26.86;43.74;101006.53;4928013;29;20055;-81
2022/07/11 07:36:35;;;;;;;3.70;0.93;;;;;;;27.08;43.31;101007.84;4933333;28;20067;-80
2022/07/11 07:39:20;;;;;;;10.93;1.33;;;;;;;27.03;43.70;101005.50;4918280;29;20047;-80
2022/07/11 07:42:04;;;;;;;;;;;;;;;27.19;43.41;100997.31;4918413;29;20044;-82
2022/07/11 07:44:49;;;;;;;4.50;0.95;;;;;;;27.26;43.20;100998.41;4919280;29;20376;-82
2022/07/11 07:47:36;;;;;;;4.15;0.75;;;;;;;27.30;43.18;101002.72;4916060;29;20047;-82
2022/07/11 07:50:22;;;;;;;3.00;0.75;;;;;;;27.26;43.73;101004.78;4926393;29;20051;-82
2022/07/11 07:53:07;;;;;;;4.25;0.73;;;;;;;27.68;42.41;100994.97;4918138;29;20071;-82
2022/07/11 07:55:52;;;;;;;4.18;1.42;;;;;;;28.34;40.85;100996.97;4918919;29;20051;-76
2022/07/11 07:58:38;;;;;;;;;;;;;;;28.72;39.88;100991.78;4912844;29;20049;-77
2022/07/11 08:01:34;;;;;;;11.88;1.63;;;;;;;28.42;40.35;101001.19;4915175;29;19915;-77
2022/07/11 08:04:19;;;;;;;3.70;1.00;;;;;;;28.02;41.40;100998.34;4915275;29;20040;-77
2022/07/11 08:07:04;;;;;;;4.30;0.80;;;;;;;27.96;40.88;100994.44;4914337;29;20083;-76
2022/07/11 08:09:49;;;;;;;1.77;0.65;;;;;;;27.80;41.83;100985.94;4942838;28;20039;-76
2022/07/11 08:12:34;;;;;;;3.13;0.70;;;;;;;27.86;41.25;100987.03;4943565;29;20059;-77
2022/07/11 08:15:18;;;;;;;3.40;0.82;;;;;;;28.16;41.16;100991.72;4913593;29;20051;-78
2022/07/11 08:18:03;;;;;;;;;;;;;;;27.90;41.58;101001.75;4911215;29;20055;-75
2022/07/11 08:20:47;;;;;;;2.50;1.10;;;;;;;27.78;41.27;100994.00;4914572;29;19915;-76
2022/07/11 08:23:32;;;;;;;3.80;0.82;;;;;;;27.77;42.08;100981.22;4920646;29;20051;-77
2022/07/11 08:26:17;;;;;;;2.42;0.90;;;;;;;27.73;41.41;100986.09;4915051;29;20437;-76
2022/07/11 08:29:02;;;;;;;;;;;;;;;27.81;41.31;100981.16;4920630;29;20102;-77
2022/07/11 08:31:47;;;;;;;3.42;0.75;;;;;;;27.83;41.36;100976.72;4948558;28;19915;-77
2022/07/11 08:34:32;;;;;;;3.45;1.73;;;;;;;27.78;41.47;100979.22;4953796;28;20523;-77
2022/07/11 08:37:17;;;;;;;2.75;1.23;;;;;;;27.86;41.01;100978.66;4942457;28;20064;-76
2022/07/11 08:40:03;;;;;;;4.28;1.20;;;;;;;27.87;40.86;100979.44;4899521;29;20048;-77
2022/07/11 08:42:47;;;;;;;5.40;1.20;;;;;;;27.90;40.93;100979.38;4898860;29;20067;-77
2022/07/11 08:45:33;;;;;;;7.85;1.00;;;;;;;27.97;41.03;100982.06;4898275;29;20051;-77
2022/07/11 08:48:19;;;;;;;1.90;0.88;;;;;;;28.31;39.85;100981.81;4899568;29;20055;-76
2022/07/11 08:51:05;;;;;;;4.45;2.10;;;;;;;28.38;40.02;100989.28;4935169;29;20532;-77
2022/07/11 08:53:51;;;;;;;2.47;0.70;;;;;;;28.33;39.75;100984.19;4923945;29;20068;-77
2022/07/11 08:56:37;;;;;;;9.23;1.85;;;;;;;28.27;39.67;100981.09;4913441;29;20059;-77
2022/07/11 08:59:23;;;;;;;12.90;1.30;;;;;;;28.35;39.55;100984.53;4909215;29;20047;-77
2022/07/11 09:02:09;;;;;;;2.75;0.85;;;;;;;28.30;40.19;100979.44;4917354;29;20063;-76
2022/07/11 09:04:53;;;;;;;8.02;1.30;;;;;;;28.20;39.73;100974.84;4931610;29;20418;-76
2022/07/11 09:07:46;;;;;;;6.18;1.10;;;;;;;28.23;39.95;100982.41;4913553;29;20051;-77
2022/07/11 09:10:31;;;;;;;2.42;1.02;;;;;;;28.44;40.32;100977.13;4917607;29;20059;-77
2022/07/11 09:13:17;;;;;;;5.68;1.30;;;;;;;28.50;38.32;100986.63;4912488;29;20051;-77
2022/07/11 09:16:06;;;;;;;2.22;0.90;;;;;;;28.35;38.80;100981.75;4909698;29;20524;-76
2022/07/11 09:18:51;;;;;;;2.38;1.02;;;;;;;28.50;39.28;100985.81;4938982;28;20414;-76
2022/07/11 09:25:31;;;;;;;1.98;0.80;;;;;;;28.36;38.52;100978.53;4909945;29;19919;-76
2022/07/11 09:28:16;;;;;;;3.50;0.80;;;;;;;28.64;37.18;100977.16;4919912;29;20067;-76
2022/07/11 09:31:16;;;;;;;5.15;0.93;;;;;;;28.72;37.60;100967.41;4928461;29;20039;-76
2022/07/11 09:34:02;;;;;;;5.80;1.08;;;;;;;28.81;37.27;100975.97;4916652;29;20418;-77
2022/07/11 09:36:54;;;;;;;4.63;1.02;;;;;;;28.86;36.72;100969.88;4916678;29;20055;-77
2022/07/11 09:39:38;;;;;;;5.93;1.23;;;;;;;28.92;37.20;100978.53;4915744;29;20039;-77
2022/07/11 09:42:44;;;;;;;2.03;1.02;;;;;;;29.04;36.26;100965.88;4916430;29;20529;-76
2022/07/11 09:45:31;;;;;;;11.02;0.98;;;;;;;28.96;35.29;100972.84;4912411;29;20054;-76
2022/07/11 09:48:16;;;;;;;2.40;0.88;;;;;;;29.10;35.89;100966.94;4929518;29;20075;-77
2022/07/11 09:51:04;;;;;;;4.32;0.90;;;;;;;29.18;36.06;100971.94;4922176;29;20047;-76
2022/07/11 09:53:58;;;;;;;6.18;0.70;;;;;;;29.12;35.06;100964.47;4917610;29;20042;-76
2022/07/11 09:56:45;;;;;;;7.37;1.10;;;;;;;29.03;35.03;100969.91;4920164;29;20091;-77
2022/07/11 09:59:29;;;;;;;2.55;0.80;;;;;;;29.05;35.51;100971.06;4924915;29;20043;-76
2022/07/11 10:02:16;;;;;;;3.58;0.90;;;;;;;29.18;34.15;100969.13;4916039;29;20047;-76
2022/07/11 10:05:02;;;;;;;14.45;1.23;;;;;;;29.29;34.70;100966.09;4933296;29;20532;-77
2022/07/11 10:07:46;;;;;;;2.42;0.75;;;;;;;29.28;34.67;100964.50;4926383;29;20410;-76
2022/07/11 10:10:32;;;;;;;6.38;1.00;;;;;;;29.41;34.92;100971.00;4940379;23;20524;-77
2022/07/11 10:13:17;;;;;;;5.40;0.90;;;;;;;29.24;34.96;100964.59;4939572;28;20235;-73
2022/07/11 10:16:08;;;;;;;4.20;1.10;;;;;;;29.47;35.72;100960.84;4932740;28;20050;-74
2022/07/11 10:19:24;;;;;;;11.98;1.30;;;;;;;29.50;34.08;100962.78;4934382;29;20046;-74
2022/07/11 10:22:25;;;;;;;5.35;0.95;;;;;;;29.31;35.55;100969.25;4914221;29;20419;-73
2022/07/11 10:25:24;;;;;;;2.10;0.90;;;;;;;29.40;34.46;100975.03;4913363;29;20067;-73
2022/07/11 10:28:30;;;;;;;1.67;0.90;;;;;;;29.53;33.36;100966.72;4917318;29;20121;-73
2022/07/11 10:31:19;;;;;;;7.95;1.05;;;;;;;29.70;34.03;100974.69;4896056;29;20071;-75
2022/07/11 10:34:06;;;;;;;3.97;0.90;;;;;;;29.74;34.78;100975.38;4910371;29;20429;-72
2022/07/11 10:36:59;;;;;;;2.50;0.80;;;;;;;29.72;34.00;100971.41;4924901;29;20048;-73
2022/07/11 10:39:59;;;;;;;13.40;1.35;;;;;;;29.89;34.94;100964.59;4937624;28;20044;-74
2022/07/11 10:42:45;;;;;;;4.15;1.13;;;;;;;29.90;35.51;100965.38;4915311;29;20509;-73
2022/07/11 10:45:51;;;;;;;1.67;0.80;;;;;;;29.72;35.05;100968.59;4915275;29;20417;-74
2022/07/11 10:48:52;;;;;;;4.68;1.13;;;;;;;29.89;34.45;100963.75;4897239;29;20052;-74
2022/07/11 10:51:47;;;;;;;13.32;1.40;;;;;;;29.83;34.46;100968.31;4909762;29;20413;-73
2022/07/11 10:55:02;;;;;;;4.25;0.85;;;;;;;29.93;33.84;100964.47;4925864;29;20039;-73
2022/07/11 10:58:06;;;;;;;4.70;1.30;;;;;;;29.79;34.21;100965.63;4923155;29;20055;-73
2022/07/11 11:01:15;;;;;;;6.80;1.38;;;;;;;29.99;35.32;100957.09;4913427;29;20035;-74
2022/07/11 11:04:43;;;;;;;3.28;0.82;;;;;;;30.04;34.13;100962.19;4914664;29;20405;-75
2022/07/11 11:07:33;;;;;;;2.65;1.10;;;;;;;30.10;33.86;100963.22;4914523;29;20050;-74
2022/07/11 11:10:19;;;;;;;3.58;1.35;;;;;;;30.17;34.76;100957.41;4914954;29;20059;-74
2022/07/11 11:13:24;;;;;;;6.82;1.33;;;;;;;30.12;34.96;100963.56;4925537;29;20492;-75
2022/07/11 11:16:19;;;;;;;6.28;2.35;;;;;;;30.33;34.20;100960.13;4909879;29;20075;-76
2022/07/11 11:19:04;;;;;;;6.70;1.08;;;;;;;30.24;33.64;100962.00;4914486;29;20539;-74
2022/07/11 11:22:12;;;;;;;3.45;0.90;;;;;;;30.44;33.43;100962.63;4914488;29;20113;-73
2022/07/11 11:24:58;;;;;;;4.05;1.13;;;;;;;30.46;33.73;100962.97;4902680;29;20067;-75
2022/07/11 11:28:04;;;;;;;2.40;0.88;;;;;;;30.38;33.96;100948.34;4934354;29;20055;-76
2022/07/11 11:30:57;;;;;;;2.78;0.77;;;;;;;30.45;34.35;100942.53;4934178;29;20051;-75
2022/07/11 11:33:47;;;;;;;5.40;1.25;;;;;;;30.31;34.02;100940.16;4918980;29;20047;-75
2022/07/11 11:36:31;;;;;;;4.15;1.17;;;;;;;30.00;34.65;100945.44;4927240;29;20039;-74
2022/07/11 11:39:32;;;;;;;5.43;1.27;;;;;;;29.94;34.83;100940.81;4911344;29;20055;-74
2022/07/11 11:42:17;;;;;;;6.53;1.17;;;;;;;30.05;34.72;100932.91;4916638;29;20054;-76
2022/07/11 11:45:07;;;;;;;2.20;1.00;;;;;;;30.24;34.20;100926.31;4914465;29;20047;-74
2022/07/11 11:47:51;;;;;;;3.35;0.90;;;;;;;30.59;33.81;100927.31;4914856;29;20051;-76
2022/07/11 11:50:36;;;;;;;8.95;1.33;;;;;;;30.65;32.46;100927.53;4914748;29;20055;-75
2022/07/11 11:53:22;;;;;;;5.97;0.90;;;;;;;30.46;32.75;100930.13;4916879;29;20406;-74
2022/07/11 11:56:29;;;;;;;3.00;0.75;;;;;;;30.52;32.74;100931.16;4915104;29;20051;-74
2022/07/11 11:59:15;;;;;;;2.53;0.98;;;;;;;30.48;33.04;100932.47;4917532;29;20043;-75
2022/07/11 12:02:00;;;;;;;2.90;0.65;;;;;;;30.49;32.82;100922.81;4911379;29;20051;-75
2022/07/11 12:04:44;;;;;;;4.93;1.05;;;;;;;30.52;32.82;100925.53;4917493;29;20047;-73
2022/07/11 12:07:29;;;;;;;4.18;0.77;;;;;;;30.54;32.81;100919.44;4913802;29;20428;-73
2022/07/11 12:10:14;;;;;;;9.77;1.23;;;;;;;30.46;33.29;100921.69;4918059;29;20047;-74
2022/07/11 12:12:59;;;;;;;5.55;0.80;;;;;;;30.73;33.52;100914.88;4931166;29;20528;-73
2022/07/11 12:18:49;;;;;;;3.40;0.80;;;;;;;30.55;32.67;100921.81;4917535;29;20055;-74
2022/07/11 12:21:35;;;;;;;4.03;1.15;;;;;;;30.47;32.85;100908.44;4917973;29;20047;-73
2022/07/11 12:24:22;;;;;;;11.32;1.65;;;;;;;30.40;33.21;100915.03;4927396;29;20055;-76
2022/07/11 12:27:08;;;;;;;2.47;0.90;;;;;;;30.42;33.18;100914.59;4923629;29;20052;-74
2022/07/11 12:29:53;;;;;;;3.13;0.77;;;;;;;30.79;33.24;100901.81;4921902;29;20071;-77
2022/07/11 12:32:38;;;;;;;14.50;1.15;;;;;;;30.87;32.88;100909.59;4921339;29;20165;-75
2022/07/11 12:35:23;;;;;;;3.25;0.90;;;;;;;30.84;33.71;100907.66;4912794;29;20059;-77
2022/07/11 12:38:07;;;;;;;5.05;0.90;;;;;;;31.11;31.78;100895.22;4916431;29;20098;-76
2022/07/11 12:41:03;;;;;;;4.78;0.80;;;;;;;31.20;32.68;100896.09;4917524;29;20063;-74
2022/07/11 12:47:03;;;;;;;3.55;1.00;;;;;;;31.27;32.02;100897.88;4917466;29;20067;-76
2022/07/11 12:49:48;;;;;;;2.15;0.93;;;;;;;31.06;32.27;100899.38;4919181;29;20051;-75
2022/07/11 12:52:39;;;;;;;3.17;0.60;;;;;;;31.28;33.12;100905.06;4912436;29;20577;-77
2022/07/11 12:55:29;;;;;;;13.25;1.30;;;;;;;31.27;33.84;100904.28;4918666;29;20115;-75
2022/07/11 12:58:16;;;;;;;4.32;1.08;;;;;;;31.25;33.49;100898.31;4917614;29;20047;-75
2022/07/11 13:01:03;;;;;;;3.42;0.90;;;;;;;31.23;33.08;100891.59;4915717;29;20512;-75
2022/07/11 13:03:48;;;;;;;5.72;1.40;;;;;;;31.51;32.99;100887.00;4915128;29;20166;-75
2022/07/11 13:09:45;;;;;;;3.47;0.73;;;;;;;31.32;33.28;100875.59;4920909;29;20618;-80
2022/07/11 13:12:30;;;;;;;3.63;0.85;;;;;;;31.37;31.70;100879.88;4932299;29;20064;-75
2022/07/11 13:15:17;;;;;;;8.77;1.25;;;;;;;31.29;32.26;100879.31;4929988;29;20453;-74